sensor_id;sensor_type;location;lat;lon;timestamp;temperature;humidity
66726;HTU21D;53638;51.062;5.804;2023-05-07T00:01:57;16.54;118.99
66726;HTU21D;53638;51.062;5.804;2023-05-07T00:04:22;16.57;118.99
66726;HTU21D;53638;51.062;5.804;2023-05-07T00:06:48;16.59;118.99
66726;HTU21D;53638;51.062;5.804;2023-05-07T00:09:14;16.59;118.99
66726;HTU21D;53638;51.062;5.804;2023-05-07T00:11:40;16.57;118.99
66726;HTU21D;53638;51.062;5.804;2023-05-07T00:14:06;16.56;118.99
66726;HTU21D;53638;51.062;5.804;2023-05-07T00:16:32;16.57;118.99
66726;HTU21D;53638;51.062;5.804;2023-05-07T00:18:57;16.56;118.99
66726;HTU21D;53638;51.062;5.804;2023-05-07T00:21:23;16.60;118.99
66726;HTU21D;53638;51.062;5.804;2023-05-07T00:23:53;16.61;118.99
66726;HTU21D;53638;51.062;5.804;2023-05-07T00:26:19;16.60;118.99
66726;HTU21D;53638;51.062;5.804;2023-05-07T00:28:47;16.62;118.99
66726;HTU21D;53638;51.062;5.804;2023-05-07T00:31:13;16.66;118.99
66726;HTU21D;53638;51.062;5.804;2023-05-07T00:33:39;16.71;118.99
66726;HTU21D;53638;51.062;5.804;2023-05-07T00:36:05;16.78;118.99
66726;HTU21D;53638;51.062;5.804;2023-05-07T00:38:31;16.80;118.99
66726;HTU21D;53638;51.062;5.804;2023-05-07T00:40:57;16.79;118.99
66726;HTU21D;53638;51.062;5.804;2023-05-07T00:43:23;16.79;118.99
66726;HTU21D;53638;51.062;5.804;2023-05-07T00:45:48;16.77;118.99
66726;HTU21D;53638;51.062;5.804;2023-05-07T00:48:15;16.81;118.99
66726;HTU21D;53638;51.062;5.804;2023-05-07T00:50:41;16.84;118.99
66726;HTU21D;53638;51.062;5.804;2023-05-07T00:53:07;16.87;118.99
66726;HTU21D;53638;51.062;5.804;2023-05-07T00:55:34;16.91;118.99
66726;HTU21D;53638;51.062;5.804;2023-05-07T00:58:00;16.89;118.99
66726;HTU21D;53638;51.062;5.804;2023-05-07T01:00:26;16.85;118.99
66726;HTU21D;53638;51.062;5.804;2023-05-07T01:02:52;16.78;118.99
66726;HTU21D;53638;51.062;5.804;2023-05-07T01:05:20;16.74;118.99
66726;HTU21D;53638;51.062;5.804;2023-05-07T01:07:49;16.69;118.99
66726;HTU21D;53638;51.062;5.804;2023-05-07T01:10:17;16.63;118.99
66726;HTU21D;53638;51.062;5.804;2023-05-07T01:12:44;16.60;118.99
66726;HTU21D;53638;51.062;5.804;2023-05-07T01:15:11;16.56;118.99
66726;HTU21D;53638;51.062;5.804;2023-05-07T01:17:40;16.52;118.99
66726;HTU21D;53638;51.062;5.804;2023-05-07T01:20:11;16.52;118.99
66726;HTU21D;53638;51.062;5.804;2023-05-07T01:22:38;16.50;118.99
66726;HTU21D;53638;51.062;5.804;2023-05-07T01:25:06;16.51;118.99
66726;HTU21D;53638;51.062;5.804;2023-05-07T01:27:34;16.51;118.99
66726;HTU21D;53638;51.062;5.804;2023-05-07T01:30:01;16.46;118.99
66726;HTU21D;53638;51.062;5.804;2023-05-07T01:32:35;16.36;118.99
66726;HTU21D;53638;51.062;5.804;2023-05-07T01:35:09;16.31;118.99
66726;HTU21D;53638;51.062;5.804;2023-05-07T01:37:38;16.26;118.99
66726;HTU21D;53638;51.062;5.804;2023-05-07T01:40:04;16.21;118.99
66726;HTU21D;53638;51.062;5.804;2023-05-07T01:42:31;16.15;118.99
66726;HTU21D;53638;51.062;5.804;2023-05-07T01:44:57;16.05;118.99
66726;HTU21D;53638;51.062;5.804;2023-05-07T01:47:24;15.97;118.99
66726;HTU21D;53638;51.062;5.804;2023-05-07T01:49:51;15.87;118.99
66726;HTU21D;53638;51.062;5.804;2023-05-07T01:52:17;15.82;118.99
66726;HTU21D;53638;51.062;5.804;2023-05-07T01:54:43;15.74;118.99
66726;HTU21D;53638;51.062;5.804;2023-05-07T01:57:09;15.72;118.99
66726;HTU21D;53638;51.062;5.804;2023-05-07T01:59:35;15.71;118.99
66726;HTU21D;53638;51.062;5.804;2023-05-07T02:02:01;15.68;118.99
66726;HTU21D;53638;51.062;5.804;2023-05-07T02:04:28;15.68;118.99
66726;HTU21D;53638;51.062;5.804;2023-05-07T02:06:54;15.72;118.99
66726;HTU21D;53638;51.062;5.804;2023-05-07T02:09:20;15.77;118.99
66726;HTU21D;53638;51.062;5.804;2023-05-07T02:11:48;15.85;118.99
66726;HTU21D;53638;51.062;5.804;2023-05-07T02:14:14;15.91;118.99
66726;HTU21D;53638;51.062;5.804;2023-05-07T02:16:41;15.96;118.99
66726;HTU21D;53638;51.062;5.804;2023-05-07T02:19:08;15.99;118.99
66726;HTU21D;53638;51.062;5.804;2023-05-07T02:21:34;16.00;118.99
66726;HTU21D;53638;51.062;5.804;2023-05-07T02:23:59;16.01;118.99
66726;HTU21D;53638;51.062;5.804;2023-05-07T02:26:25;16.04;118.99
66726;HTU21D;53638;51.062;5.804;2023-05-07T02:28:51;16.06;118.99
66726;HTU21D;53638;51.062;5.804;2023-05-07T02:31:17;16.06;118.99
66726;HTU21D;53638;51.062;5.804;2023-05-07T02:33:43;16.07;118.99
66726;HTU21D;53638;51.062;5.804;2023-05-07T02:36:12;16.10;118.99
66726;HTU21D;53638;51.062;5.804;2023-05-07T02:38:44;16.10;118.99
66726;HTU21D;53638;51.062;5.804;2023-05-07T02:41:12;16.04;118.99
66726;HTU21D;53638;51.062;5.804;2023-05-07T02:43:38;16.04;118.99
66726;HTU21D;53638;51.062;5.804;2023-05-07T02:46:07;16.05;118.99
66726;HTU21D;53638;51.062;5.804;2023-05-07T02:48:36;16.10;118.99
66726;HTU21D;53638;51.062;5.804;2023-05-07T02:51:05;16.14;118.99
66726;HTU21D;53638;51.062;5.804;2023-05-07T02:53:32;16.14;118.99
66726;HTU21D;53638;51.062;5.804;2023-05-07T02:56:01;16.12;118.99
66726;HTU21D;53638;51.062;5.804;2023-05-07T02:58:28;16.18;118.99
66726;HTU21D;53638;51.062;5.804;2023-05-07T03:00:54;16.20;118.99
66726;HTU21D;53638;51.062;5.804;2023-05-07T03:03:28;16.18;118.99
66726;HTU21D;53638;51.062;5.804;2023-05-07T03:05:54;16.15;118.99
66726;HTU21D;53638;51.062;5.804;2023-05-07T03:08:20;16.16;118.99
66726;HTU21D;53638;51.062;5.804;2023-05-07T03:10:46;16.14;118.99
66726;HTU21D;53638;51.062;5.804;2023-05-07T03:13:12;16.13;118.99
66726;HTU21D;53638;51.062;5.804;2023-05-07T03:15:38;16.12;118.99
66726;HTU21D;53638;51.062;5.804;2023-05-07T03:18:04;16.12;118.99
66726;HTU21D;53638;51.062;5.804;2023-05-07T03:20:30;16.13;118.99
66726;HTU21D;53638;51.062;5.804;2023-05-07T03:22:56;16.13;118.99
66726;HTU21D;53638;51.062;5.804;2023-05-07T03:25:22;16.14;118.99
66726;HTU21D;53638;51.062;5.804;2023-05-07T03:27:48;16.10;118.99
66726;HTU21D;53638;51.062;5.804;2023-05-07T03:30:16;16.06;118.99
66726;HTU21D;53638;51.062;5.804;2023-05-07T03:32:42;16.02;118.99
66726;HTU21D;53638;51.062;5.804;2023-05-07T03:35:10;15.99;118.99
66726;HTU21D;53638;51.062;5.804;2023-05-07T03:37:38;15.95;118.99
66726;HTU21D;53638;51.062;5.804;2023-05-07T03:40:05;15.89;118.99
66726;HTU21D;53638;51.062;5.804;2023-05-07T03:42:40;15.82;118.99
66726;HTU21D;53638;51.062;5.804;2023-05-07T03:45:06;15.75;118.99
66726;HTU21D;53638;51.062;5.804;2023-05-07T03:47:33;15.71;118.99
66726;HTU21D;53638;51.062;5.804;2023-05-07T03:49:59;15.67;118.99
66726;HTU21D;53638;51.062;5.804;2023-05-07T03:52:25;15.63;118.99
66726;HTU21D;53638;51.062;5.804;2023-05-07T03:54:53;15.58;118.99
66726;HTU21D;53638;51.062;5.804;2023-05-07T03:57:20;15.58;118.99
66726;HTU21D;53638;51.062;5.804;2023-05-07T03:59:46;15.58;118.99
66726;HTU21D;53638;51.062;5.804;2023-05-07T04:02:12;15.56;118.99
66726;HTU21D;53638;51.062;5.804;2023-05-07T04:04:38;15.47;118.99
66726;HTU21D;53638;51.062;5.804;2023-05-07T04:07:03;15.46;118.99
66726;HTU21D;53638;51.062;5.804;2023-05-07T04:09:32;15.51;118.99
66726;HTU21D;53638;51.062;5.804;2023-05-07T04:11:58;15.54;118.99
66726;HTU21D;53638;51.062;5.804;2023-05-07T04:14:23;15.56;118.99
66726;HTU21D;53638;51.062;5.804;2023-05-07T04:16:49;15.60;118.99
66726;HTU21D;53638;51.062;5.804;2023-05-07T04:19:22;15.66;118.99
66726;HTU21D;53638;51.062;5.804;2023-05-07T04:21:51;15.72;118.99
66726;HTU21D;53638;51.062;5.804;2023-05-07T04:24:17;15.81;118.99
66726;HTU21D;53638;51.062;5.804;2023-05-07T04:26:44;15.90;118.99
66726;HTU21D;53638;51.062;5.804;2023-05-07T04:29:10;15.93;118.99
66726;HTU21D;53638;51.062;5.804;2023-05-07T04:31:37;15.95;118.99
66726;HTU21D;53638;51.062;5.804;2023-05-07T04:34:03;16.02;118.99
66726;HTU21D;53638;51.062;5.804;2023-05-07T04:36:29;16.07;118.99
66726;HTU21D;53638;51.062;5.804;2023-05-07T04:39:22;16.13;118.99
66726;HTU21D;53638;51.062;5.804;2023-05-07T04:41:48;16.18;118.99
66726;HTU21D;53638;51.062;5.804;2023-05-07T04:44:14;16.22;118.99
66726;HTU21D;53638;51.062;5.804;2023-05-07T04:46:40;16.28;118.99
66726;HTU21D;53638;51.062;5.804;2023-05-07T04:49:06;16.28;118.99
66726;HTU21D;53638;51.062;5.804;2023-05-07T04:51:32;16.25;118.99
66726;HTU21D;53638;51.062;5.804;2023-05-07T04:53:58;16.25;118.99
66726;HTU21D;53638;51.062;5.804;2023-05-07T04:56:27;16.25;118.99
66726;HTU21D;53638;51.062;5.804;2023-05-07T04:58:53;16.27;118.99
66726;HTU21D;53638;51.062;5.804;2023-05-07T05:01:21;16.33;118.99
66726;HTU21D;53638;51.062;5.804;2023-05-07T05:03:47;16.41;118.99
66726;HTU21D;53638;51.062;5.804;2023-05-07T05:06:13;16.49;118.99
66726;HTU21D;53638;51.062;5.804;2023-05-07T05:08:39;16.56;118.99
66726;HTU21D;53638;51.062;5.804;2023-05-07T05:11:05;16.63;118.99
66726;HTU21D;53638;51.062;5.804;2023-05-07T05:13:33;16.70;118.99
66726;HTU21D;53638;51.062;5.804;2023-05-07T05:16:03;16.77;118.99
66726;HTU21D;53638;51.062;5.804;2023-05-07T05:18:32;16.82;118.99
66726;HTU21D;53638;51.062;5.804;2023-05-07T05:20:59;16.88;118.99
66726;HTU21D;53638;51.062;5.804;2023-05-07T05:23:28;16.92;118.99
66726;HTU21D;53638;51.062;5.804;2023-05-07T05:25:56;16.91;118.99
66726;HTU21D;53638;51.062;5.804;2023-05-07T05:28:25;16.88;118.99
66726;HTU21D;53638;51.062;5.804;2023-05-07T05:30:51;16.86;118.99
66726;HTU21D;53638;51.062;5.804;2023-05-07T05:33:18;16.80;118.99
66726;HTU21D;53638;51.062;5.804;2023-05-07T05:35:43;16.85;118.99
66726;HTU21D;53638;51.062;5.804;2023-05-07T05:38:11;16.95;118.99
66726;HTU21D;53638;51.062;5.804;2023-05-07T05:40:38;17.03;118.99
66726;HTU21D;53638;51.062;5.804;2023-05-07T05:43:05;17.11;118.99
66726;HTU21D;53638;51.062;5.804;2023-05-07T05:45:33;17.19;118.99
66726;HTU21D;53638;51.062;5.804;2023-05-07T05:48:00;17.28;118.99
66726;HTU21D;53638;51.062;5.804;2023-05-07T05:50:26;17.35;118.99
66726;HTU21D;53638;51.062;5.804;2023-05-07T05:52:52;17.41;118.99
66726;HTU21D;53638;51.062;5.804;2023-05-07T05:55:20;17.49;118.99
66726;HTU21D;53638;51.062;5.804;2023-05-07T05:57:46;17.61;118.99
66726;HTU21D;53638;51.062;5.804;2023-05-07T06:00:12;17.67;118.99
66726;HTU21D;53638;51.062;5.804;2023-05-07T06:02:45;17.74;118.99
66726;HTU21D;53638;51.062;5.804;2023-05-07T06:05:13;17.81;118.99
66726;HTU21D;53638;51.062;5.804;2023-05-07T06:07:40;17.91;118.99
66726;HTU21D;53638;51.062;5.804;2023-05-07T06:10:07;17.98;118.99
66726;HTU21D;53638;51.062;5.804;2023-05-07T06:12:33;18.02;118.99
66726;HTU21D;53638;51.062;5.804;2023-05-07T06:14:59;18.07;118.99
66726;HTU21D;53638;51.062;5.804;2023-05-07T06:17:25;18.19;118.99
66726;HTU21D;53638;51.062;5.804;2023-05-07T06:19:51;18.33;118.99
66726;HTU21D;53638;51.062;5.804;2023-05-07T06:22:19;18.41;118.99
66726;HTU21D;53638;51.062;5.804;2023-05-07T06:24:45;18.56;118.99
66726;HTU21D;53638;51.062;5.804;2023-05-07T06:27:12;18.73;118.99
66726;HTU21D;53638;51.062;5.804;2023-05-07T06:29:39;18.87;118.99
66726;HTU21D;53638;51.062;5.804;2023-05-07T06:32:13;19.03;118.99
66726;HTU21D;53638;51.062;5.804;2023-05-07T06:34:41;19.13;118.99
66726;HTU21D;53638;51.062;5.804;2023-05-07T06:37:08;19.08;118.99
66726;HTU21D;53638;51.062;5.804;2023-05-07T06:39:47;19.10;118.99
66726;HTU21D;53638;51.062;5.804;2023-05-07T06:42:13;19.16;118.99
66726;HTU21D;53638;51.062;5.804;2023-05-07T06:44:42;19.24;118.99
66726;HTU21D;53638;51.062;5.804;2023-05-07T06:47:11;19.27;118.99
66726;HTU21D;53638;51.062;5.804;2023-05-07T06:49:39;19.38;118.99
66726;HTU21D;53638;51.062;5.804;2023-05-07T06:52:05;19.51;118.99
66726;HTU21D;53638;51.062;5.804;2023-05-07T06:54:31;19.65;118.99
66726;HTU21D;53638;51.062;5.804;2023-05-07T06:57:00;19.72;118.99
66726;HTU21D;53638;51.062;5.804;2023-05-07T06:59:27;19.73;118.99
66726;HTU21D;53638;51.062;5.804;2023-05-07T07:01:54;19.81;118.99
66726;HTU21D;53638;51.062;5.804;2023-05-07T07:04:20;19.87;118.99
66726;HTU21D;53638;51.062;5.804;2023-05-07T07:06:54;19.95;118.99
66726;HTU21D;53638;51.062;5.804;2023-05-07T07:09:28;19.99;118.99
66726;HTU21D;53638;51.062;5.804;2023-05-07T07:11:57;20.05;118.99
66726;HTU21D;53638;51.062;5.804;2023-05-07T07:15:14;20.18;118.99
66726;HTU21D;53638;51.062;5.804;2023-05-07T07:17:23;20.33;118.99
66726;HTU21D;53638;51.062;5.804;2023-05-07T07:19:49;20.41;118.99
66726;HTU21D;53638;51.062;5.804;2023-05-07T07:22:24;20.46;118.99
66726;HTU21D;53638;51.062;5.804;2023-05-07T07:24:51;20.57;118.99
66726;HTU21D;53638;51.062;5.804;2023-05-07T07:27:17;20.60;118.99
66726;HTU21D;53638;51.062;5.804;2023-05-07T07:29:46;20.58;118.99
66726;HTU21D;53638;51.062;5.804;2023-05-07T07:32:15;20.64;118.99
66726;HTU21D;53638;51.062;5.804;2023-05-07T07:35:21;20.71;118.99
66726;HTU21D;53638;51.062;5.804;2023-05-07T07:37:48;20.76;118.99
66726;HTU21D;53638;51.062;5.804;2023-05-07T07:40:16;20.74;118.99
66726;HTU21D;53638;51.062;5.804;2023-05-07T07:42:44;20.77;118.99
66726;HTU21D;53638;51.062;5.804;2023-05-07T07:45:11;20.84;118.99
66726;HTU21D;53638;51.062;5.804;2023-05-07T07:47:44;20.89;118.99
66726;HTU21D;53638;51.062;5.804;2023-05-07T07:50:11;20.98;118.99
66726;HTU21D;53638;51.062;5.804;2023-05-07T07:52:37;21.10;118.99
66726;HTU21D;53638;51.062;5.804;2023-05-07T07:55:04;21.22;118.99
66726;HTU21D;53638;51.062;5.804;2023-05-07T07:57:33;21.34;118.99
66726;HTU21D;53638;51.062;5.804;2023-05-07T08:00:04;21.44;118.99
66726;HTU21D;53638;51.062;5.804;2023-05-07T08:03:10;21.64;118.99
66726;HTU21D;53638;51.062;5.804;2023-05-07T08:05:39;21.85;118.99
66726;HTU21D;53638;51.062;5.804;2023-05-07T08:08:11;22.04;118.99
66726;HTU21D;53638;51.062;5.804;2023-05-07T08:10:43;22.21;118.99
66726;HTU21D;53638;51.062;5.804;2023-05-07T08:13:40;22.41;118.99
66726;HTU21D;53638;51.062;5.804;2023-05-07T08:16:09;22.56;118.50
66726;HTU21D;53638;51.062;5.804;2023-05-07T08:19:15;22.75;118.02
66726;HTU21D;53638;51.062;5.804;2023-05-07T08:21:41;22.91;115.03
66726;HTU21D;53638;51.062;5.804;2023-05-07T08:24:09;23.08;113.91
66726;HTU21D;53638;51.062;5.804;2023-05-07T08:26:35;23.20;116.41
66726;HTU21D;53638;51.062;5.804;2023-05-07T08:29:37;23.25;117.97
66726;HTU21D;53638;51.062;5.804;2023-05-07T08:32:07;23.34;118.99
66726;HTU21D;53638;51.062;5.804;2023-05-07T08:34:36;23.43;117.46
66726;HTU21D;53638;51.062;5.804;2023-05-07T08:37:08;23.56;114.86
66726;HTU21D;53638;51.062;5.804;2023-05-07T08:39:34;23.68;115.08
66726;HTU21D;53638;51.062;5.804;2023-05-07T08:42:04;23.80;112.90
66726;HTU21D;53638;51.062;5.804;2023-05-07T08:44:59;23.92;113.82
66726;HTU21D;53638;51.062;5.804;2023-05-07T08:47:58;23.98;111.46
66726;HTU21D;53638;51.062;5.804;2023-05-07T08:50:54;24.05;114.93
66726;HTU21D;53638;51.062;5.804;2023-05-07T08:53:21;24.05;113.54
66726;HTU21D;53638;51.062;5.804;2023-05-07T08:56:08;23.98;115.09
66726;HTU21D;53638;51.062;5.804;2023-05-07T08:58:35;24.01;115.52
66726;HTU21D;53638;51.062;5.804;2023-05-07T09:01:07;24.17;112.68
66726;HTU21D;53638;51.062;5.804;2023-05-07T09:03:34;24.34;115.12
66726;HTU21D;53638;51.062;5.804;2023-05-07T09:07:16;24.45;114.23
66726;HTU21D;53638;51.062;5.804;2023-05-07T09:09:39;24.35;113.42
66726;HTU21D;53638;51.062;5.804;2023-05-07T09:12:26;24.45;115.58
66726;HTU21D;53638;51.062;5.804;2023-05-07T09:14:52;24.46;115.47
66726;HTU21D;53638;51.062;5.804;2023-05-07T09:17:21;24.33;113.23
66726;HTU21D;53638;51.062;5.804;2023-05-07T09:19:49;24.32;113.10
66726;HTU21D;53638;51.062;5.804;2023-05-07T09:22:24;24.45;111.36
66726;HTU21D;53638;51.062;5.804;2023-05-07T09:24:58;24.62;111.05
66726;HTU21D;53638;51.062;5.804;2023-05-07T09:27:26;24.77;112.09
66726;HTU21D;53638;51.062;5.804;2023-05-07T09:29:54;24.91;111.34
66726;HTU21D;53638;51.062;5.804;2023-05-07T09:32:20;24.99;108.91
66726;HTU21D;53638;51.062;5.804;2023-05-07T09:34:46;25.09;109.09
66726;HTU21D;53638;51.062;5.804;2023-05-07T09:37:15;25.30;110.34
66726;HTU21D;53638;51.062;5.804;2023-05-07T09:39:46;25.61;105.90
66726;HTU21D;53638;51.062;5.804;2023-05-07T09:42:29;25.90;107.59
66726;HTU21D;53638;51.062;5.804;2023-05-07T09:45:05;26.04;105.20
66726;HTU21D;53638;51.062;5.804;2023-05-07T09:47:39;26.05;104.31
66726;HTU21D;53638;51.062;5.804;2023-05-07T09:50:08;26.06;101.41
66726;HTU21D;53638;51.062;5.804;2023-05-07T09:52:39;26.05;99.98
66726;HTU21D;53638;51.062;5.804;2023-05-07T09:55:28;26.17;99.57
66726;HTU21D;53638;51.062;5.804;2023-05-07T09:58:30;26.34;98.40
66726;HTU21D;53638;51.062;5.804;2023-05-07T10:00:58;26.49;98.94
66726;HTU21D;53638;51.062;5.804;2023-05-07T10:03:27;26.55;101.43
66726;HTU21D;53638;51.062;5.804;2023-05-07T10:06:00;26.60;99.51
66726;HTU21D;53638;51.062;5.804;2023-05-07T10:08:27;26.80;95.91
66726;HTU21D;53638;51.062;5.804;2023-05-07T10:11:07;27.14;95.39
66726;HTU21D;53638;51.062;5.804;2023-05-07T10:13:33;27.21;95.09
66726;HTU21D;53638;51.062;5.804;2023-05-07T10:16:47;27.39;95.14
66726;HTU21D;53638;51.062;5.804;2023-05-07T10:19:40;27.54;93.72
66726;HTU21D;53638;51.062;5.804;2023-05-07T10:22:08;27.71;91.67
66726;HTU21D;53638;51.062;5.804;2023-05-07T10:24:52;27.78;89.96
66726;HTU21D;53638;51.062;5.804;2023-05-07T10:27:22;27.79;94.75
66726;HTU21D;53638;51.062;5.804;2023-05-07T10:32:45;27.07;93.63
66726;HTU21D;53638;51.062;5.804;2023-05-07T10:35:24;26.91;92.54
66726;HTU21D;53638;51.062;5.804;2023-05-07T10:37:52;26.65;97.10
66726;HTU21D;53638;51.062;5.804;2023-05-07T10:40:21;26.42;98.50
66726;HTU21D;53638;51.062;5.804;2023-05-07T10:42:58;26.17;94.81
66726;HTU21D;53638;51.062;5.804;2023-05-07T10:52:24;26.21;94.27
66726;HTU21D;53638;51.062;5.804;2023-05-07T10:58:25;26.37;92.18
66726;HTU21D;53638;51.062;5.804;2023-05-07T11:04:27;26.11;90.35
66726;HTU21D;53638;51.062;5.804;2023-05-07T11:07:28;25.71;92.42
66726;HTU21D;53638;51.062;5.804;2023-05-07T11:10:01;25.29;95.77
66726;HTU21D;53638;51.062;5.804;2023-05-07T11:15:09;24.72;101.05
66726;HTU21D;53638;51.062;5.804;2023-05-07T11:17:55;24.50;104.50
66726;HTU21D;53638;51.062;5.804;2023-05-07T11:20:44;24.23;99.28
66726;HTU21D;53638;51.062;5.804;2023-05-07T11:26:17;23.95;104.76
66726;HTU21D;53638;51.062;5.804;2023-05-07T11:28:44;23.80;100.46
66726;HTU21D;53638;51.062;5.804;2023-05-07T11:31:13;23.65;100.72
66726;HTU21D;53638;51.062;5.804;2023-05-07T11:34:01;23.39;101.36
66726;HTU21D;53638;51.062;5.804;2023-05-07T11:36:36;23.10;103.58
66726;HTU21D;53638;51.062;5.804;2023-05-07T11:40:09;21.76;110.62
66726;HTU21D;53638;51.062;5.804;2023-05-07T12:03:06;17.99;118.99
66726;HTU21D;53638;51.062;5.804;2023-05-07T12:06:14;18.36;118.99
66726;HTU21D;53638;51.062;5.804;2023-05-07T12:12:04;19.43;118.99
66726;HTU21D;53638;51.062;5.804;2023-05-07T12:14:32;19.80;118.99
66726;HTU21D;53638;51.062;5.804;2023-05-07T12:20:28;20.60;118.99
66726;HTU21D;53638;51.062;5.804;2023-05-07T12:23:03;20.91;118.99
66726;HTU21D;53638;51.062;5.804;2023-05-07T12:25:31;21.23;118.99
66726;HTU21D;53638;51.062;5.804;2023-05-07T12:28:00;21.37;118.99
66726;HTU21D;53638;51.062;5.804;2023-05-07T12:30:27;21.53;118.99
66726;HTU21D;53638;51.062;5.804;2023-05-07T12:32:54;21.51;118.99
66726;HTU21D;53638;51.062;5.804;2023-05-07T12:35:33;21.52;118.99
66726;HTU21D;53638;51.062;5.804;2023-05-07T12:38:35;21.74;118.99
66726;HTU21D;53638;51.062;5.804;2023-05-07T12:41:29;21.83;118.99
66726;HTU21D;53638;51.062;5.804;2023-05-07T12:43:58;21.79;118.99
66726;HTU21D;53638;51.062;5.804;2023-05-07T12:46:24;21.53;118.99
66726;HTU21D;53638;51.062;5.804;2023-05-07T12:48:52;21.18;118.99
66726;HTU21D;53638;51.062;5.804;2023-05-07T12:51:18;21.04;118.99
66726;HTU21D;53638;51.062;5.804;2023-05-07T12:53:45;21.03;118.99
66726;HTU21D;53638;51.062;5.804;2023-05-07T12:56:17;21.17;118.99
66726;HTU21D;53638;51.062;5.804;2023-05-07T13:01:44;21.50;118.99
66726;HTU21D;53638;51.062;5.804;2023-05-07T13:05:33;21.65;118.99
66726;HTU21D;53638;51.062;5.804;2023-05-07T13:09:40;21.62;118.99
66726;HTU21D;53638;51.062;5.804;2023-05-07T13:13:44;21.75;118.99
66726;HTU21D;53638;51.062;5.804;2023-05-07T13:20:06;21.65;118.99
66726;HTU21D;53638;51.062;5.804;2023-05-07T13:23:30;21.70;118.99
66726;HTU21D;53638;51.062;5.804;2023-05-07T13:30:19;21.81;118.99
66726;HTU21D;53638;51.062;5.804;2023-05-07T13:33:16;21.82;118.99
66726;HTU21D;53638;51.062;5.804;2023-05-07T13:36:23;21.78;118.99
66726;HTU21D;53638;51.062;5.804;2023-05-07T13:39:04;21.84;118.99
66726;HTU21D;53638;51.062;5.804;2023-05-07T13:42:26;22.02;118.99
66726;HTU21D;53638;51.062;5.804;2023-05-07T13:45:43;22.10;118.99
66726;HTU21D;53638;51.062;5.804;2023-05-07T13:48:12;22.16;118.99
66726;HTU21D;53638;51.062;5.804;2023-05-07T13:51:03;22.26;118.99
66726;HTU21D;53638;51.062;5.804;2023-05-07T13:53:30;22.33;118.99
66726;HTU21D;53638;51.062;5.804;2023-05-07T13:56:05;22.36;118.99
66726;HTU21D;53638;51.062;5.804;2023-05-07T13:58:34;22.28;118.99
66726;HTU21D;53638;51.062;5.804;2023-05-07T14:02:00;22.26;118.99
66726;HTU21D;53638;51.062;5.804;2023-05-07T14:04:58;22.39;118.99
66726;HTU21D;53638;51.062;5.804;2023-05-07T14:07:30;22.34;118.99
66726;HTU21D;53638;51.062;5.804;2023-05-07T14:10:25;22.33;118.99
66726;HTU21D;53638;51.062;5.804;2023-05-07T14:13:14;22.36;118.99
66726;HTU21D;53638;51.062;5.804;2023-05-07T14:15:49;22.34;118.99
66726;HTU21D;53638;51.062;5.804;2023-05-07T14:18:36;22.25;118.99
66726;HTU21D;53638;51.062;5.804;2023-05-07T14:21:03;22.18;118.99
66726;HTU21D;53638;51.062;5.804;2023-05-07T14:23:32;22.13;118.99
66726;HTU21D;53638;51.062;5.804;2023-05-07T14:25:58;22.16;118.99
66726;HTU21D;53638;51.062;5.804;2023-05-07T14:28:27;22.20;118.99
66726;HTU21D;53638;51.062;5.804;2023-05-07T14:30:56;22.16;118.99
66726;HTU21D;53638;51.062;5.804;2023-05-07T14:33:25;22.08;118.99
66726;HTU21D;53638;51.062;5.804;2023-05-07T14:35:51;22.17;118.99
66726;HTU21D;53638;51.062;5.804;2023-05-07T14:38:19;22.33;118.99
66726;HTU21D;53638;51.062;5.804;2023-05-07T14:40:45;22.43;118.99
66726;HTU21D;53638;51.062;5.804;2023-05-07T14:43:11;22.63;118.99
66726;HTU21D;53638;51.062;5.804;2023-05-07T14:45:37;22.88;118.99
66726;HTU21D;53638;51.062;5.804;2023-05-07T14:48:04;23.12;118.99
66726;HTU21D;53638;51.062;5.804;2023-05-07T14:51:10;23.38;115.99
66726;HTU21D;53638;51.062;5.804;2023-05-07T14:53:43;23.47;115.30
66726;HTU21D;53638;51.062;5.804;2023-05-07T14:56:10;23.68;110.91
66726;HTU21D;53638;51.062;5.804;2023-05-07T14:58:43;23.88;108.49
66726;HTU21D;53638;51.062;5.804;2023-05-07T15:01:09;24.05;108.99
66726;HTU21D;53638;51.062;5.804;2023-05-07T15:03:35;24.29;107.37
66726;HTU21D;53638;51.062;5.804;2023-05-07T15:06:02;24.36;105.74
66726;HTU21D;53638;51.062;5.804;2023-05-07T15:08:28;24.42;106.70
66726;HTU21D;53638;51.062;5.804;2023-05-07T15:10:55;24.36;107.82
66726;HTU21D;53638;51.062;5.804;2023-05-07T15:13:21;24.32;106.79
66726;HTU21D;53638;51.062;5.804;2023-05-07T15:15:47;24.25;105.20
66726;HTU21D;53638;51.062;5.804;2023-05-07T15:18:14;24.23;105.27
66726;HTU21D;53638;51.062;5.804;2023-05-07T15:20:41;24.24;105.31
66726;HTU21D;53638;51.062;5.804;2023-05-07T15:23:07;24.27;104.84
66726;HTU21D;53638;51.062;5.804;2023-05-07T15:25:44;24.42;105.68
66726;HTU21D;53638;51.062;5.804;2023-05-07T15:28:32;24.51;104.89
66726;HTU21D;53638;51.062;5.804;2023-05-07T15:30:59;24.44;104.82
66726;HTU21D;53638;51.062;5.804;2023-05-07T15:33:25;24.06;107.59
66726;HTU21D;53638;51.062;5.804;2023-05-07T15:36:19;23.67;108.99
66726;HTU21D;53638;51.062;5.804;2023-05-07T15:38:48;23.45;111.30
66726;HTU21D;53638;51.062;5.804;2023-05-07T15:41:14;23.36;110.00
66726;HTU21D;53638;51.062;5.804;2023-05-07T15:43:46;23.39;109.65
66726;HTU21D;53638;51.062;5.804;2023-05-07T15:46:25;23.53;109.49
66726;HTU21D;53638;51.062;5.804;2023-05-07T15:48:57;23.56;107.90
66726;HTU21D;53638;51.062;5.804;2023-05-07T15:51:23;23.54;106.90
66726;HTU21D;53638;51.062;5.804;2023-05-07T15:53:54;23.53;108.94
66726;HTU21D;53638;51.062;5.804;2023-05-07T15:56:20;23.53;107.00
66726;HTU21D;53638;51.062;5.804;2023-05-07T15:58:49;23.60;106.92
66726;HTU21D;53638;51.062;5.804;2023-05-07T16:01:14;23.64;108.86
66726;HTU21D;53638;51.062;5.804;2023-05-07T16:03:41;23.64;110.70
66726;HTU21D;53638;51.062;5.804;2023-05-07T16:06:07;23.71;110.58
66726;HTU21D;53638;51.062;5.804;2023-05-07T16:08:42;23.61;109.64
66726;HTU21D;53638;51.062;5.804;2023-05-07T16:11:11;23.49;110.61
66726;HTU21D;53638;51.062;5.804;2023-05-07T16:13:44;23.53;108.73
66726;HTU21D;53638;51.062;5.804;2023-05-07T16:16:13;23.61;106.68
66726;HTU21D;53638;51.062;5.804;2023-05-07T16:18:39;23.73;105.50
66726;HTU21D;53638;51.062;5.804;2023-05-07T16:21:08;23.86;105.91
66726;HTU21D;53638;51.062;5.804;2023-05-07T16:23:34;23.82;104.33
66726;HTU21D;53638;51.062;5.804;2023-05-07T16:26:01;23.73;104.09
66726;HTU21D;53638;51.062;5.804;2023-05-07T16:28:27;23.65;105.55
66726;HTU21D;53638;51.062;5.804;2023-05-07T16:30:56;23.50;106.57
66726;HTU21D;53638;51.062;5.804;2023-05-07T16:33:22;23.29;107.14
66726;HTU21D;53638;51.062;5.804;2023-05-07T16:35:51;23.14;107.70